createdAt,value
2018-10-12T00:03:47.856Z,15.30
2018-10-12T00:08:50.018Z,15.45
2018-10-12T00:13:52.191Z,15.85
2018-10-12T00:18:54.387Z,15.45
2018-10-12T00:23:56.569Z,15.40
2018-10-12T00:28:58.762Z,15.65
2018-10-12T00:34:00.905Z,15.18
2018-10-12T00:39:03.829Z,15.35
2018-10-12T00:44:06.051Z,15.28
2018-10-12T00:49:08.557Z,17.10
2018-10-12T00:54:10.715Z,16.70
2018-10-12T00:59:12.912Z,16.35
2018-10-12T01:04:15.091Z,15.13
2018-10-12T01:09:17.258Z,16.12
2018-10-12T01:14:19.431Z,15.63
2018-10-12T01:19:21.620Z,16.35
2018-10-12T01:24:23.789Z,16.00
2018-10-12T01:29:25.957Z,16.10
2018-10-12T01:34:28.190Z,16.32
2018-10-12T01:39:30.337Z,15.35
2018-10-12T01:44:32.498Z,16.82
2018-10-12T01:49:34.854Z,17.12
2018-10-12T01:54:37.025Z,15.95
2018-10-12T01:59:39.219Z,16.65
2018-10-12T02:04:41.570Z,16.55
2018-10-12T02:09:43.738Z,16.32
2018-10-12T02:14:45.915Z,16.35
2018-10-12T02:19:48.102Z,16.70
2018-10-12T02:24:50.355Z,16.52
2018-10-12T02:29:52.518Z,15.85
2018-10-12T02:34:54.687Z,15.45
2018-10-12T02:39:56.850Z,15.60
2018-10-12T02:44:59.083Z,15.38
2018-10-12T02:50:01.228Z,15.70
2018-10-12T02:55:03.463Z,15.55
2018-10-12T03:00:06.047Z,15.28
2018-10-12T03:05:08.225Z,15.05
2018-10-12T03:10:10.472Z,15.40
2018-10-12T03:15:12.666Z,16.07
2018-10-12T03:20:14.845Z,15.75
2018-10-12T03:25:17.058Z,14.73
2018-10-12T03:30:19.367Z,15.23
2018-10-12T03:35:21.671Z,15.55
2018-10-12T03:40:23.865Z,15.68
2018-10-12T03:45:26.084Z,15.60
2018-10-12T03:50:28.570Z,15.25
2018-10-12T03:55:30.879Z,15.10
2018-10-12T04:00:33.036Z,15.28
2018-10-12T04:05:35.221Z,16.27
2018-10-12T04:10:37.362Z,14.98
2018-10-12T04:15:39.593Z,14.47
2018-10-12T04:20:41.795Z,14.40
2018-10-12T04:25:43.941Z,14.05
2018-10-12T04:30:46.139Z,14.65
2018-10-12T04:35:48.281Z,13.75
2018-10-12T04:40:58.620Z,14.73
2018-10-12T04:46:02.670Z,14.75
2018-10-12T04:51:07.712Z,14.38
2018-10-12T04:56:11.147Z,14.05
2018-10-12T05:01:13.355Z,13.48
2018-10-12T05:06:15.569Z,14.63
2018-10-12T05:11:17.717Z,13.95
2018-10-12T05:16:19.919Z,14.03
2018-10-12T05:21:22.075Z,13.98
2018-10-12T05:26:24.214Z,13.85
2018-10-12T05:31:26.402Z,14.43
2018-10-12T05:36:28.552Z,13.60
2018-10-12T05:41:30.702Z,13.80
2018-10-12T05:46:32.837Z,13.95
2018-10-12T05:51:35.029Z,13.75
2018-10-12T05:56:37.835Z,14.20
2018-10-12T06:01:39.988Z,14.95
2018-10-12T06:06:42.157Z,14.98
2018-10-12T06:11:44.289Z,15.78
2018-10-12T06:16:46.429Z,14.98
2018-10-12T06:21:48.585Z,14.50
2018-10-12T06:26:50.881Z,13.85
2018-10-12T06:31:52.992Z,14.15
2018-10-12T06:36:55.183Z,13.68
2018-10-12T06:41:57.348Z,13.90
2018-10-12T06:46:59.573Z,13.53
2018-10-12T06:52:01.731Z,13.95
2018-10-12T06:57:03.976Z,13.58
2018-10-12T07:02:06.158Z,14.13
2018-10-12T07:07:08.362Z,14.33
2018-10-12T07:12:10.821Z,14.18
2018-10-12T07:17:12.998Z,14.05
2018-10-12T07:22:15.173Z,14.38
2018-10-12T07:27:17.336Z,14.25
2018-10-12T07:32:19.633Z,14.63
2018-10-12T07:37:21.920Z,14.55
2018-10-12T07:42:24.131Z,14.15
2018-10-12T07:47:26.446Z,15.03
2018-10-12T07:52:28.548Z,14.33
2018-10-12T07:57:31.799Z,14.00
2018-10-12T08:02:34.231Z,13.45
2018-10-12T08:07:36.476Z,12.20
2018-10-12T08:12:38.613Z,11.97
2018-10-12T08:17:40.893Z,11.88
2018-10-12T08:22:43.079Z,11.68
2018-10-12T08:27:45.302Z,11.33
2018-10-12T08:32:49.839Z,12.18
2018-10-12T08:37:52.437Z,12.45
2018-10-12T08:42:56.400Z,12.45
2018-10-12T08:47:58.621Z,12.58
2018-10-12T08:53:00.804Z,13.75
2018-10-12T08:58:02.995Z,13.25
2018-10-12T09:03:05.384Z,11.12
2018-10-12T09:08:07.564Z,11.38
2018-10-12T09:13:09.748Z,9.53
2018-10-12T09:18:11.891Z,9.95
2018-10-12T09:23:14.110Z,9.55
2018-10-12T09:28:16.268Z,9.48
2018-10-12T09:33:18.636Z,9.78
2018-10-12T09:38:20.787Z,9.10
2018-10-12T09:43:23.004Z,9.60
2018-10-12T09:48:25.381Z,8.85
2018-10-12T09:53:27.541Z,8.98
2018-10-12T09:58:29.723Z,8.30
2018-10-12T10:03:37.437Z,8.93
2018-10-12T10:08:39.660Z,8.53
2018-10-12T10:13:41.864Z,9.00
2018-10-12T10:18:44.061Z,9.00
2018-10-12T10:23:46.223Z,10.55
2018-10-12T10:28:48.544Z,8.58
2018-10-12T10:33:50.681Z,8.63
2018-10-12T10:38:52.895Z,8.35
2018-10-12T10:43:55.125Z,7.47
2018-10-12T10:48:57.281Z,7.75
2018-10-12T10:53:59.470Z,10.58
2018-10-12T10:59:01.677Z,7.90
2018-10-12T11:04:03.801Z,6.92
2018-10-12T11:09:07.300Z,6.53
2018-10-12T11:14:09.455Z,6.70
2018-10-12T11:19:11.777Z,7.10
2018-10-12T11:24:14.742Z,7.85
2018-10-12T11:29:17.455Z,7.30
2018-10-12T11:34:19.665Z,7.20
2018-10-12T11:39:21.906Z,6.17
2018-10-12T11:44:24.069Z,5.97
2018-10-12T11:49:26.216Z,5.75
2018-10-12T11:54:28.343Z,5.78
2018-10-12T11:59:30.461Z,5.47
2018-10-12T12:04:32.585Z,5.42
2018-10-12T12:09:34.697Z,5.17
2018-10-12T12:14:36.879Z,5.58
2018-10-12T12:19:39.054Z,5.20
2018-10-12T12:24:41.300Z,5.53
2018-10-12T12:29:43.447Z,5.78
2018-10-12T12:34:45.761Z,5.30
2018-10-12T12:39:47.907Z,5.90
2018-10-12T12:44:50.096Z,6.00
2018-10-12T12:49:52.247Z,5.80
2018-10-12T12:54:54.450Z,5.78
2018-10-12T12:59:56.705Z,5.42
2018-10-12T13:04:58.840Z,5.67
2018-10-12T13:10:06.900Z,5.42
2018-10-12T13:15:12.300Z,5.47
2018-10-12T13:20:14.584Z,5.60
2018-10-12T13:25:16.757Z,5.22
2018-10-12T13:30:18.957Z,5.87
2018-10-12T13:35:21.093Z,5.33
2018-10-12T13:40:23.313Z,4.75
2018-10-12T13:45:25.450Z,5.37
2018-10-12T13:50:27.726Z,5.50
2018-10-12T13:55:29.866Z,5.30
2018-10-12T14:00:32.003Z,5.75
2018-10-12T14:05:34.145Z,5.62
2018-10-12T14:10:36.296Z,5.85
2018-10-12T14:15:38.540Z,6.05
2018-10-12T14:20:40.895Z,6.30
2018-10-12T14:25:43.103Z,6.22
2018-10-12T14:30:45.277Z,6.15
2018-10-12T14:35:47.473Z,6.30
2018-10-12T14:40:49.594Z,6.47
2018-10-12T14:45:51.837Z,6.40
2018-10-12T14:50:53.984Z,6.00
2018-10-12T14:55:56.208Z,6.50
2018-10-12T15:00:58.383Z,6.40
2018-10-12T15:06:00.600Z,6.25
2018-10-12T15:11:02.753Z,6.00
2018-10-12T15:16:04.939Z,5.90
2018-10-12T15:21:07.206Z,6.10
2018-10-12T15:26:09.287Z,6.28
2018-10-12T15:31:12.479Z,6.37
2018-10-12T15:36:14.771Z,6.12
2018-10-12T15:41:17.354Z,6.70
2018-10-12T15:46:19.526Z,7.33
2018-10-12T15:51:21.659Z,6.53
2018-10-12T15:56:23.857Z,7.35
2018-10-12T16:01:26.053Z,7.30
2018-10-12T16:06:29.594Z,7.45
2018-10-12T16:11:32.005Z,7.22
2018-10-12T16:16:34.142Z,7.12
2018-10-12T16:21:36.484Z,7.40
2018-10-12T16:26:38.727Z,7.78
2018-10-12T16:31:40.890Z,7.50
2018-10-12T16:36:43.337Z,9.13
2018-10-12T16:41:45.516Z,9.05
2018-10-12T16:46:47.674Z,9.08
2018-10-12T16:51:49.833Z,8.65
2018-10-12T16:56:52.019Z,8.95
2018-10-12T17:01:54.174Z,8.40
2018-10-12T17:06:56.328Z,8.73
2018-10-12T17:11:58.595Z,7.40
2018-10-12T17:17:00.734Z,7.37
2018-10-12T17:22:02.971Z,7.30
2018-10-12T17:27:05.139Z,7.08
2018-10-12T17:32:07.308Z,7.33
2018-10-12T17:37:09.659Z,7.72
2018-10-12T17:42:15.444Z,7.83
2018-10-12T17:47:17.583Z,6.87
2018-10-12T17:52:19.817Z,6.95
2018-10-12T17:57:23.648Z,6.08
2018-10-12T18:02:25.821Z,6.35
2018-10-12T18:07:27.979Z,6.33
2018-10-12T18:12:30.093Z,6.10
2018-10-12T18:17:32.270Z,6.22
2018-10-12T18:22:34.528Z,5.87
2018-10-12T18:27:36.795Z,5.97
2018-10-12T18:32:38.942Z,6.15
2018-10-12T18:37:41.077Z,6.05
2018-10-12T18:42:43.243Z,6.08
2018-10-12T18:47:45.619Z,6.25
2018-10-12T18:52:47.774Z,5.78
2018-10-12T18:57:49.944Z,5.95
2018-10-12T19:02:52.090Z,5.67
2018-10-12T19:07:54.250Z,6.00
2018-10-12T19:12:56.388Z,5.53
2018-10-12T19:17:58.525Z,5.67
2018-10-12T19:23:00.694Z,6.30
2018-10-12T19:28:02.858Z,6.00
2018-10-12T19:33:05.113Z,5.80
2018-10-12T19:38:08.509Z,5.85
2018-10-12T19:43:10.668Z,6.30
2018-10-12T19:48:12.827Z,6.35
2018-10-12T19:53:14.997Z,6.70
2018-10-12T19:58:17.138Z,6.50
2018-10-12T20:03:19.304Z,5.97
2018-10-12T20:08:21.446Z,6.85
2018-10-12T20:13:23.598Z,6.30
2018-10-12T20:18:25.790Z,6.62
2018-10-12T20:23:28.015Z,6.92
2018-10-12T20:28:30.350Z,6.40
2018-10-12T20:33:32.623Z,6.20
2018-10-12T20:38:36.034Z,6.65
2018-10-12T20:43:39.634Z,7.53
2018-10-12T20:48:42.400Z,7.15
2018-10-12T20:53:44.658Z,7.08
2018-10-12T20:58:46.897Z,6.75
2018-10-12T21:03:49.141Z,7.03
2018-10-12T21:08:51.402Z,7.22
2018-10-12T21:13:53.652Z,7.53
2018-10-12T21:18:55.798Z,7.97
2018-10-12T21:23:58.273Z,7.65
2018-10-12T21:29:00.441Z,7.97
2018-10-12T21:34:02.625Z,8.45
2018-10-12T21:39:05.471Z,8.65
2018-10-12T21:44:07.689Z,8.00
2018-10-12T21:49:09.850Z,8.60
2018-10-12T21:54:12.038Z,8.45
2018-10-12T21:59:14.264Z,7.78
2018-10-12T22:04:16.708Z,7.85
2018-10-12T22:09:18.893Z,7.78
2018-10-12T22:14:21.129Z,8.03
2018-10-12T22:19:24.019Z,8.35
2018-10-12T22:24:26.309Z,8.33
2018-10-12T22:29:28.468Z,8.53
2018-10-12T22:34:30.720Z,8.35
2018-10-12T22:39:33.025Z,8.65
2018-10-12T22:44:35.241Z,9.65
2018-10-12T22:49:37.561Z,9.50
2018-10-12T22:54:40.217Z,9.40
2018-10-12T22:59:42.408Z,9.60
2018-10-12T23:04:44.564Z,9.40
2018-10-12T23:09:46.697Z,9.30
2018-10-12T23:14:48.880Z,9.50
2018-10-12T23:19:51.056Z,9.68
2018-10-12T23:24:53.229Z,10.30
2018-10-12T23:29:55.551Z,9.68
2018-10-12T23:34:57.704Z,9.45
2018-10-12T23:39:59.858Z,10.32
2018-10-12T23:45:02.017Z,10.13
2018-10-12T23:50:04.322Z,9.95
2018-10-12T23:55:06.454Z,10.05
